sensor_id;sensor_type;location;lat;lon;timestamp;temperature;humidity
62589;DHT22;58504;48.770;9.148;2022-12-07T00:01:20;19.80;55.10
62589;DHT22;58504;48.770;9.148;2022-12-07T00:03:49;19.80;55.30
62589;DHT22;58504;48.770;9.148;2022-12-07T00:06:18;19.80;55.30
62589;DHT22;58504;48.770;9.148;2022-12-07T00:08:46;19.70;55.30
62589;DHT22;58504;48.770;9.148;2022-12-07T00:11:15;19.70;55.40
62589;DHT22;58504;48.770;9.148;2022-12-07T00:13:43;19.70;55.40
62589;DHT22;58504;48.770;9.148;2022-12-07T00:16:13;19.70;55.40
62589;DHT22;58504;48.770;9.148;2022-12-07T00:18:40;19.70;55.40
62589;DHT22;58504;48.770;9.148;2022-12-07T00:21:10;19.70;55.40
62589;DHT22;58504;48.770;9.148;2022-12-07T00:23:39;19.70;55.30
62589;DHT22;58504;48.770;9.148;2022-12-07T00:26:08;19.60;55.40
62589;DHT22;58504;48.770;9.148;2022-12-07T00:28:35;19.60;55.40
62589;DHT22;58504;48.770;9.148;2022-12-07T00:31:04;19.60;55.40
62589;DHT22;58504;48.770;9.148;2022-12-07T00:33:32;19.60;55.50
62589;DHT22;58504;48.770;9.148;2022-12-07T00:36:00;19.60;55.50
62589;DHT22;58504;48.770;9.148;2022-12-07T00:38:28;19.60;55.50
62589;DHT22;58504;48.770;9.148;2022-12-07T00:41:01;19.60;55.60
62589;DHT22;58504;48.770;9.148;2022-12-07T00:43:29;19.50;55.50
62589;DHT22;58504;48.770;9.148;2022-12-07T00:45:56;19.50;55.50
62589;DHT22;58504;48.770;9.148;2022-12-07T00:48:23;19.50;55.60
62589;DHT22;58504;48.770;9.148;2022-12-07T00:50:50;19.50;55.50
62589;DHT22;58504;48.770;9.148;2022-12-07T00:53:17;19.50;55.50
62589;DHT22;58504;48.770;9.148;2022-12-07T00:55:44;19.50;55.50
62589;DHT22;58504;48.770;9.148;2022-12-07T00:58:13;19.50;55.50
62589;DHT22;58504;48.770;9.148;2022-12-07T01:00:41;19.50;55.50
62589;DHT22;58504;48.770;9.148;2022-12-07T01:03:10;19.40;55.30
62589;DHT22;58504;48.770;9.148;2022-12-07T01:05:37;19.40;55.40
62589;DHT22;58504;48.770;9.148;2022-12-07T01:08:04;19.40;55.40
62589;DHT22;58504;48.770;9.148;2022-12-07T01:10:32;19.40;55.50
62589;DHT22;58504;48.770;9.148;2022-12-07T01:12:59;19.40;55.40
62589;DHT22;58504;48.770;9.148;2022-12-07T01:15:27;19.30;55.30
62589;DHT22;58504;48.770;9.148;2022-12-07T01:17:53;19.40;55.30
62589;DHT22;58504;48.770;9.148;2022-12-07T01:20:21;19.30;55.30
62589;DHT22;58504;48.770;9.148;2022-12-07T01:22:48;19.30;55.40
62589;DHT22;58504;48.770;9.148;2022-12-07T01:25:15;19.30;55.40
62589;DHT22;58504;48.770;9.148;2022-12-07T01:27:41;19.30;55.40
62589;DHT22;58504;48.770;9.148;2022-12-07T01:30:11;19.30;55.50
62589;DHT22;58504;48.770;9.148;2022-12-07T01:32:39;19.30;55.50
62589;DHT22;58504;48.770;9.148;2022-12-07T01:35:06;19.30;55.60
62589;DHT22;58504;48.770;9.148;2022-12-07T01:37:35;19.20;55.60
62589;DHT22;58504;48.770;9.148;2022-12-07T01:40:03;19.20;55.60
62589;DHT22;58504;48.770;9.148;2022-12-07T01:42:30;19.20;55.60
62589;DHT22;58504;48.770;9.148;2022-12-07T01:48:13;19.20;55.60
62589;DHT22;58504;48.770;9.148;2022-12-07T01:50:43;19.20;55.70
62589;DHT22;58504;48.770;9.148;2022-12-07T01:53:11;19.20;55.70
62589;DHT22;58504;48.770;9.148;2022-12-07T01:55:41;19.10;55.70
62589;DHT22;58504;48.770;9.148;2022-12-07T01:58:09;19.10;55.70
62589;DHT22;58504;48.770;9.148;2022-12-07T02:00:36;19.10;55.70
62589;DHT22;58504;48.770;9.148;2022-12-07T02:03:07;19.10;55.80
62589;DHT22;58504;48.770;9.148;2022-12-07T02:05:38;19.10;55.80
62589;DHT22;58504;48.770;9.148;2022-12-07T02:08:07;19.10;55.80
62589;DHT22;58504;48.770;9.148;2022-12-07T02:10:35;19.10;55.80
62589;DHT22;58504;48.770;9.148;2022-12-07T02:13:03;19.10;55.80
62589;DHT22;58504;48.770;9.148;2022-12-07T02:15:38;19.10;55.90
62589;DHT22;58504;48.770;9.148;2022-12-07T02:18:09;19.00;55.80
62589;DHT22;58504;48.770;9.148;2022-12-07T02:20:48;19.00;55.80
62589;DHT22;58504;48.770;9.148;2022-12-07T02:23:38;19.00;55.90
62589;DHT22;58504;48.770;9.148;2022-12-07T02:29:21;19.00;55.90
62589;DHT22;58504;48.770;9.148;2022-12-07T02:31:55;19.00;56.00
62589;DHT22;58504;48.770;9.148;2022-12-07T02:34:31;18.90;55.90
62589;DHT22;58504;48.770;9.148;2022-12-07T02:37:03;19.00;56.00
62589;DHT22;58504;48.770;9.148;2022-12-07T02:39:39;18.90;56.00
62589;DHT22;58504;48.770;9.148;2022-12-07T02:42:10;18.90;56.00
62589;DHT22;58504;48.770;9.148;2022-12-07T02:44:40;18.90;56.00
62589;DHT22;58504;48.770;9.148;2022-12-07T02:47:10;18.90;56.10
62589;DHT22;58504;48.770;9.148;2022-12-07T02:49:39;18.90;56.10
62589;DHT22;58504;48.770;9.148;2022-12-07T02:52:06;18.90;56.10
62589;DHT22;58504;48.770;9.148;2022-12-07T02:54:33;18.90;56.10
62589;DHT22;58504;48.770;9.148;2022-12-07T02:57:04;18.90;56.10
62589;DHT22;58504;48.770;9.148;2022-12-07T02:59:39;18.90;56.20
62589;DHT22;58504;48.770;9.148;2022-12-07T03:02:17;18.90;56.20
62589;DHT22;58504;48.770;9.148;2022-12-07T03:04:54;18.80;56.10
62589;DHT22;58504;48.770;9.148;2022-12-07T03:07:29;18.80;56.10
62589;DHT22;58504;48.770;9.148;2022-12-07T03:10:03;18.80;56.10
62589;DHT22;58504;48.770;9.148;2022-12-07T03:12:44;18.80;56.10
62589;DHT22;58504;48.770;9.148;2022-12-07T03:15:14;18.80;56.20
62589;DHT22;58504;48.770;9.148;2022-12-07T03:17:45;18.80;56.20
62589;DHT22;58504;48.770;9.148;2022-12-07T03:20:14;18.70;56.20
62589;DHT22;58504;48.770;9.148;2022-12-07T03:22:44;18.80;56.30
62589;DHT22;58504;48.770;9.148;2022-12-07T03:25:14;18.70;56.20
62589;DHT22;58504;48.770;9.148;2022-12-07T03:27:46;18.80;56.30
62589;DHT22;58504;48.770;9.148;2022-12-07T03:30:18;18.80;56.30
62589;DHT22;58504;48.770;9.148;2022-12-07T03:32:49;18.70;56.20
62589;DHT22;58504;48.770;9.148;2022-12-07T03:35:19;18.70;56.30
62589;DHT22;58504;48.770;9.148;2022-12-07T03:37:51;18.70;56.30
62589;DHT22;58504;48.770;9.148;2022-12-07T03:40:22;18.70;56.30
62589;DHT22;58504;48.770;9.148;2022-12-07T03:42:50;18.70;56.30
62589;DHT22;58504;48.770;9.148;2022-12-07T03:45:19;18.70;56.30
62589;DHT22;58504;48.770;9.148;2022-12-07T03:47:53;18.60;56.20
62589;DHT22;58504;48.770;9.148;2022-12-07T03:50:25;18.70;56.40
62589;DHT22;58504;48.770;9.148;2022-12-07T03:52:56;18.70;56.40
62589;DHT22;58504;48.770;9.148;2022-12-07T03:55:28;18.60;56.30
62589;DHT22;58504;48.770;9.148;2022-12-07T03:58:00;18.60;56.30
62589;DHT22;58504;48.770;9.148;2022-12-07T04:00:28;18.60;56.30
62589;DHT22;58504;48.770;9.148;2022-12-07T04:02:57;18.60;56.30
62589;DHT22;58504;48.770;9.148;2022-12-07T04:05:24;18.60;56.40
62589;DHT22;58504;48.770;9.148;2022-12-07T04:07:51;18.60;56.30
62589;DHT22;58504;48.770;9.148;2022-12-07T04:10:18;18.60;56.40
62589;DHT22;58504;48.770;9.148;2022-12-07T04:12:45;18.60;56.40
62589;DHT22;58504;48.770;9.148;2022-12-07T04:15:12;18.60;56.50
62589;DHT22;58504;48.770;9.148;2022-12-07T04:17:39;18.50;56.40
62589;DHT22;58504;48.770;9.148;2022-12-07T04:20:08;18.60;56.50
62589;DHT22;58504;48.770;9.148;2022-12-07T04:22:35;18.50;56.40
62589;DHT22;58504;48.770;9.148;2022-12-07T04:25:02;18.50;56.50
62589;DHT22;58504;48.770;9.148;2022-12-07T04:27:29;18.50;56.40
62589;DHT22;58504;48.770;9.148;2022-12-07T04:29:56;18.50;56.40
62589;DHT22;58504;48.770;9.148;2022-12-07T04:32:23;18.60;56.40
62589;DHT22;58504;48.770;9.148;2022-12-07T04:34:50;18.80;56.20
62589;DHT22;58504;48.770;9.148;2022-12-07T04:37:18;19.20;55.60
62589;DHT22;58504;48.770;9.148;2022-12-07T04:39:45;19.50;54.80
62589;DHT22;58504;48.770;9.148;2022-12-07T04:42:12;19.90;54.00
62589;DHT22;58504;48.770;9.148;2022-12-07T04:44:39;20.30;53.30
62589;DHT22;58504;48.770;9.148;2022-12-07T04:47:06;20.50;52.70
62589;DHT22;58504;48.770;9.148;2022-12-07T04:49:33;20.70;52.10
62589;DHT22;58504;48.770;9.148;2022-12-07T04:52:00;20.90;51.80
62589;DHT22;58504;48.770;9.148;2022-12-07T04:54:28;21.00;51.50
62589;DHT22;58504;48.770;9.148;2022-12-07T04:56:55;21.10;51.30
62589;DHT22;58504;48.770;9.148;2022-12-07T04:59:22;21.20;51.10
62589;DHT22;58504;48.770;9.148;2022-12-07T05:01:48;21.30;50.90
62589;DHT22;58504;48.770;9.148;2022-12-07T05:04:15;21.30;50.80
62589;DHT22;58504;48.770;9.148;2022-12-07T05:06:43;21.40;50.60
62589;DHT22;58504;48.770;9.148;2022-12-07T05:09:10;21.50;50.40
62589;DHT22;58504;48.770;9.148;2022-12-07T05:11:38;21.60;50.40
62589;DHT22;58504;48.770;9.148;2022-12-07T05:14:07;21.60;50.20
62589;DHT22;58504;48.770;9.148;2022-12-07T05:16:34;21.70;50.20
62589;DHT22;58504;48.770;9.148;2022-12-07T05:19:01;21.80;50.10
62589;DHT22;58504;48.770;9.148;2022-12-07T05:21:28;21.80;50.00
62589;DHT22;58504;48.770;9.148;2022-12-07T05:23:55;21.80;49.80
62589;DHT22;58504;48.770;9.148;2022-12-07T05:26:22;21.90;49.90
62589;DHT22;58504;48.770;9.148;2022-12-07T05:28:51;21.90;49.80
62589;DHT22;58504;48.770;9.148;2022-12-07T05:31:19;21.90;49.70
62589;DHT22;58504;48.770;9.148;2022-12-07T05:33:46;22.00;49.70
62589;DHT22;58504;48.770;9.148;2022-12-07T05:36:13;22.00;49.60
62589;DHT22;58504;48.770;9.148;2022-12-07T05:38:40;22.00;49.50
62589;DHT22;58504;48.770;9.148;2022-12-07T05:41:08;22.00;49.50
62589;DHT22;58504;48.770;9.148;2022-12-07T05:43:57;22.10;49.60
62589;DHT22;58504;48.770;9.148;2022-12-07T05:46:24;22.10;49.40
62589;DHT22;58504;48.770;9.148;2022-12-07T05:48:51;22.10;49.40
62589;DHT22;58504;48.770;9.148;2022-12-07T05:51:18;22.20;49.30
62589;DHT22;58504;48.770;9.148;2022-12-07T05:53:45;22.20;49.40
62589;DHT22;58504;48.770;9.148;2022-12-07T05:56:12;22.20;49.20
62589;DHT22;58504;48.770;9.148;2022-12-07T05:58:38;22.20;49.20
62589;DHT22;58504;48.770;9.148;2022-12-07T06:01:24;22.30;49.20
62589;DHT22;58504;48.770;9.148;2022-12-07T06:03:51;22.30;49.20
62589;DHT22;58504;48.770;9.148;2022-12-07T06:06:18;22.30;49.20
62589;DHT22;58504;48.770;9.148;2022-12-07T06:08:45;22.30;49.10
62589;DHT22;58504;48.770;9.148;2022-12-07T06:11:11;22.30;49.10
62589;DHT22;58504;48.770;9.148;2022-12-07T06:13:56;22.30;49.10
62589;DHT22;58504;48.770;9.148;2022-12-07T06:16:24;22.30;49.00
62589;DHT22;58504;48.770;9.148;2022-12-07T06:18:50;22.30;49.00
62589;DHT22;58504;48.770;9.148;2022-12-07T06:21:17;22.40;49.00
62589;DHT22;58504;48.770;9.148;2022-12-07T06:23:44;22.30;49.00
62589;DHT22;58504;48.770;9.148;2022-12-07T06:26:11;22.40;49.00
62589;DHT22;58504;48.770;9.148;2022-12-07T06:28:37;22.40;49.00
62589;DHT22;58504;48.770;9.148;2022-12-07T06:31:04;22.40;48.90
62589;DHT22;58504;48.770;9.148;2022-12-07T06:33:32;22.40;48.90
62589;DHT22;58504;48.770;9.148;2022-12-07T06:35:59;22.40;48.90
62589;DHT22;58504;48.770;9.148;2022-12-07T06:38:26;22.40;48.80
62589;DHT22;58504;48.770;9.148;2022-12-07T06:40:52;22.50;48.90
62589;DHT22;58504;48.770;9.148;2022-12-07T06:43:19;22.40;48.80
62589;DHT22;58504;48.770;9.148;2022-12-07T06:45:46;22.40;49.40
62589;DHT22;58504;48.770;9.148;2022-12-07T06:48:13;22.40;49.50
62589;DHT22;58504;48.770;9.148;2022-12-07T06:50:41;22.30;49.60
62589;DHT22;58504;48.770;9.148;2022-12-07T06:53:10;22.30;49.60
62589;DHT22;58504;48.770;9.148;2022-12-07T06:55:37;22.30;49.80
62589;DHT22;58504;48.770;9.148;2022-12-07T06:58:03;22.30;49.90
62589;DHT22;58504;48.770;9.148;2022-12-07T07:00:30;22.30;50.00
62589;DHT22;58504;48.770;9.148;2022-12-07T07:02:57;22.30;50.10
62589;DHT22;58504;48.770;9.148;2022-12-07T07:05:23;22.20;50.20
62589;DHT22;58504;48.770;9.148;2022-12-07T07:07:51;22.20;50.40
62589;DHT22;58504;48.770;9.148;2022-12-07T07:10:18;22.10;50.40
62589;DHT22;58504;48.770;9.148;2022-12-07T07:12:45;22.00;50.80
62589;DHT22;58504;48.770;9.148;2022-12-07T07:15:12;22.00;51.10
62589;DHT22;58504;48.770;9.148;2022-12-07T07:17:38;21.90;51.20
62589;DHT22;58504;48.770;9.148;2022-12-07T07:20:06;21.80;51.30
62589;DHT22;58504;48.770;9.148;2022-12-07T07:22:33;21.70;51.60
62589;DHT22;58504;48.770;9.148;2022-12-07T07:25:01;21.60;51.80
62589;DHT22;58504;48.770;9.148;2022-12-07T07:27:28;21.50;51.70
62589;DHT22;58504;48.770;9.148;2022-12-07T07:29:55;21.40;51.60
62589;DHT22;58504;48.770;9.148;2022-12-07T07:32:21;21.30;51.70
62589;DHT22;58504;48.770;9.148;2022-12-07T07:34:48;21.30;51.90
62589;DHT22;58504;48.770;9.148;2022-12-07T07:37:15;21.20;52.00
62589;DHT22;58504;48.770;9.148;2022-12-07T07:39:42;21.10;52.10
62589;DHT22;58504;48.770;9.148;2022-12-07T07:42:10;21.00;52.10
62589;DHT22;58504;48.770;9.148;2022-12-07T07:44:37;20.90;52.10
62589;DHT22;58504;48.770;9.148;2022-12-07T07:47:03;20.90;52.30
62589;DHT22;58504;48.770;9.148;2022-12-07T07:49:30;20.80;52.30
62589;DHT22;58504;48.770;9.148;2022-12-07T07:51:57;20.70;52.40
62589;DHT22;58504;48.770;9.148;2022-12-07T07:54:24;20.70;52.50
62589;DHT22;58504;48.770;9.148;2022-12-07T07:56:52;20.60;52.60
62589;DHT22;58504;48.770;9.148;2022-12-07T07:59:20;20.60;52.60
62589;DHT22;58504;48.770;9.148;2022-12-07T08:01:46;20.50;52.80
62589;DHT22;58504;48.770;9.148;2022-12-07T08:04:13;20.40;52.80
62589;DHT22;58504;48.770;9.148;2022-12-07T08:06:40;20.40;52.90
62589;DHT22;58504;48.770;9.148;2022-12-07T08:09:08;20.30;53.00
62589;DHT22;58504;48.770;9.148;2022-12-07T08:11:35;20.20;53.00
62589;DHT22;58504;48.770;9.148;2022-12-07T08:14:02;20.20;53.10
62589;DHT22;58504;48.770;9.148;2022-12-07T08:16:31;20.20;53.20
62589;DHT22;58504;48.770;9.148;2022-12-07T08:18:57;20.10;53.20
62589;DHT22;58504;48.770;9.148;2022-12-07T08:21:24;20.10;53.30
62589;DHT22;58504;48.770;9.148;2022-12-07T08:23:51;20.00;53.30
62589;DHT22;58504;48.770;9.148;2022-12-07T08:26:18;20.00;53.40
62589;DHT22;58504;48.770;9.148;2022-12-07T08:28:45;20.00;53.40
62589;DHT22;58504;48.770;9.148;2022-12-07T08:31:14;19.90;53.40
62589;DHT22;58504;48.770;9.148;2022-12-07T08:33:44;19.90;53.50
62589;DHT22;58504;48.770;9.148;2022-12-07T08:36:12;19.90;53.50
62589;DHT22;58504;48.770;9.148;2022-12-07T08:38:40;19.90;53.50
62589;DHT22;58504;48.770;9.148;2022-12-07T08:41:08;19.80;53.50
62589;DHT22;58504;48.770;9.148;2022-12-07T08:43:35;19.80;53.60
62589;DHT22;58504;48.770;9.148;2022-12-07T08:46:07;19.80;53.60
62589;DHT22;58504;48.770;9.148;2022-12-07T08:48:38;19.80;53.40
62589;DHT22;58504;48.770;9.148;2022-12-07T08:51:07;19.80;53.60
62589;DHT22;58504;48.770;9.148;2022-12-07T08:53:35;19.70;53.50
62589;DHT22;58504;48.770;9.148;2022-12-07T08:56:02;19.70;53.70
62589;DHT22;58504;48.770;9.148;2022-12-07T08:58:30;19.70;53.70
62589;DHT22;58504;48.770;9.148;2022-12-07T09:00:57;19.70;53.80
62589;DHT22;58504;48.770;9.148;2022-12-07T09:03:24;19.70;53.70
62589;DHT22;58504;48.770;9.148;2022-12-07T09:05:51;19.60;53.80
62589;DHT22;58504;48.770;9.148;2022-12-07T09:08:20;19.60;53.80
62589;DHT22;58504;48.770;9.148;2022-12-07T09:10:47;19.60;53.80
62589;DHT22;58504;48.770;9.148;2022-12-07T09:13:14;19.60;53.80
62589;DHT22;58504;48.770;9.148;2022-12-07T09:15:41;19.50;53.70
62589;DHT22;58504;48.770;9.148;2022-12-07T09:18:08;19.50;53.70
62589;DHT22;58504;48.770;9.148;2022-12-07T09:20:34;19.50;54.00
62589;DHT22;58504;48.770;9.148;2022-12-07T09:23:01;19.50;54.00
62589;DHT22;58504;48.770;9.148;2022-12-07T09:25:29;19.50;54.10
62589;DHT22;58504;48.770;9.148;2022-12-07T09:27:56;19.50;54.20
62589;DHT22;58504;48.770;9.148;2022-12-07T09:30:24;19.40;54.20
62589;DHT22;58504;48.770;9.148;2022-12-07T09:32:53;19.40;54.20
62589;DHT22;58504;48.770;9.148;2022-12-07T09:35:20;19.40;54.30
62589;DHT22;58504;48.770;9.148;2022-12-07T09:37:47;19.40;54.30
62589;DHT22;58504;48.770;9.148;2022-12-07T09:40:14;19.40;54.40
62589;DHT22;58504;48.770;9.148;2022-12-07T09:42:46;19.40;54.40
62589;DHT22;58504;48.770;9.148;2022-12-07T09:45:16;19.40;54.40
62589;DHT22;58504;48.770;9.148;2022-12-07T09:47:43;19.40;54.40
62589;DHT22;58504;48.770;9.148;2022-12-07T09:50:14;19.40;54.40
62589;DHT22;58504;48.770;9.148;2022-12-07T09:52:42;19.40;54.40
62589;DHT22;58504;48.770;9.148;2022-12-07T09:55:12;19.30;54.40
62589;DHT22;58504;48.770;9.148;2022-12-07T09:57:39;19.30;54.40
62589;DHT22;58504;48.770;9.148;2022-12-07T10:00:12;19.30;54.40
62589;DHT22;58504;48.770;9.148;2022-12-07T10:02:41;19.30;54.30
62589;DHT22;58504;48.770;9.148;2022-12-07T10:05:13;19.30;54.40
62589;DHT22;58504;48.770;9.148;2022-12-07T10:07:40;19.30;54.40
62589;DHT22;58504;48.770;9.148;2022-12-07T10:10:15;19.30;54.30
62589;DHT22;58504;48.770;9.148;2022-12-07T10:12:59;19.30;54.10
62589;DHT22;58504;48.770;9.148;2022-12-07T10:18:29;19.20;54.40
62589;DHT22;58504;48.770;9.148;2022-12-07T10:21:10;19.20;54.50
62589;DHT22;58504;48.770;9.148;2022-12-07T10:23:39;19.10;54.50
62589;DHT22;58504;48.770;9.148;2022-12-07T10:26:29;19.10;54.50
62589;DHT22;58504;48.770;9.148;2022-12-07T10:28:59;19.10;54.50
62589;DHT22;58504;48.770;9.148;2022-12-07T10:31:26;19.10;54.50
62589;DHT22;58504;48.770;9.148;2022-12-07T10:33:55;19.10;54.40
62589;DHT22;58504;48.770;9.148;2022-12-07T10:36:25;19.10;54.20
62589;DHT22;58504;48.770;9.148;2022-12-07T10:38:59;19.10;54.20
62589;DHT22;58504;48.770;9.148;2022-12-07T10:41:26;19.10;54.20
62589;DHT22;58504;48.770;9.148;2022-12-07T10:43:55;19.10;54.20
62589;DHT22;58504;48.770;9.148;2022-12-07T10:46:45;19.10;54.30
62589;DHT22;58504;48.770;9.148;2022-12-07T10:49:36;19.10;54.20
62589;DHT22;58504;48.770;9.148;2022-12-07T10:52:09;19.10;54.30
62589;DHT22;58504;48.770;9.148;2022-12-07T10:54:46;19.00;54.30
62589;DHT22;58504;48.770;9.148;2022-12-07T10:57:32;19.00;54.30
62589;DHT22;58504;48.770;9.148;2022-12-07T11:00:11;19.00;54.30
62589;DHT22;58504;48.770;9.148;2022-12-07T11:02:57;18.90;54.20
62589;DHT22;58504;48.770;9.148;2022-12-07T11:05:30;18.90;54.30
62589;DHT22;58504;48.770;9.148;2022-12-07T11:08:05;18.90;54.50
62589;DHT22;58504;48.770;9.148;2022-12-07T11:10:41;18.90;54.70
62589;DHT22;58504;48.770;9.148;2022-12-07T11:13:24;18.90;54.70
62589;DHT22;58504;48.770;9.148;2022-12-07T11:16:16;18.90;54.80
62589;DHT22;58504;48.770;9.148;2022-12-07T11:18:59;18.90;54.70
62589;DHT22;58504;48.770;9.148;2022-12-07T11:21:36;18.80;54.70
62589;DHT22;58504;48.770;9.148;2022-12-07T11:24:10;18.80;54.70
62589;DHT22;58504;48.770;9.148;2022-12-07T11:27:05;18.80;54.80
62589;DHT22;58504;48.770;9.148;2022-12-07T11:29:56;18.80;54.80
62589;DHT22;58504;48.770;9.148;2022-12-07T11:32:40;18.80;54.90
62589;DHT22;58504;48.770;9.148;2022-12-07T11:35:12;18.70;54.80
62589;DHT22;58504;48.770;9.148;2022-12-07T11:37:45;18.70;54.90
62589;DHT22;58504;48.770;9.148;2022-12-07T11:40:19;18.70;54.90
62589;DHT22;58504;48.770;9.148;2022-12-07T11:42:51;18.70;55.20
62589;DHT22;58504;48.770;9.148;2022-12-07T11:45:23;18.70;55.10
62589;DHT22;58504;48.770;9.148;2022-12-07T11:47:55;18.70;55.10
62589;DHT22;58504;48.770;9.148;2022-12-07T11:50:27;18.70;55.10
62589;DHT22;58504;48.770;9.148;2022-12-07T11:53:01;18.60;55.20
62589;DHT22;58504;48.770;9.148;2022-12-07T11:55:30;18.60;55.10
62589;DHT22;58504;48.770;9.148;2022-12-07T11:58:04;18.60;55.00
62589;DHT22;58504;48.770;9.148;2022-12-07T12:00:31;18.60;55.10
62589;DHT22;58504;48.770;9.148;2022-12-07T12:03:01;18.60;55.10
62589;DHT22;58504;48.770;9.148;2022-12-07T12:05:28;18.60;55.30
62589;DHT22;58504;48.770;9.148;2022-12-07T12:08:05;18.60;55.30
62589;DHT22;58504;48.770;9.148;2022-12-07T12:10:45;18.60;55.30
62589;DHT22;58504;48.770;9.148;2022-12-07T12:16:48;18.50;55.40
62589;DHT22;58504;48.770;9.148;2022-12-07T12:19:24;18.50;55.40
62589;DHT22;58504;48.770;9.148;2022-12-07T12:21:56;18.50;55.50
62589;DHT22;58504;48.770;9.148;2022-12-07T12:24:29;18.40;55.20
62589;DHT22;58504;48.770;9.148;2022-12-07T12:27:03;18.40;55.30
62589;DHT22;58504;48.770;9.148;2022-12-07T12:29:34;18.50;55.50
62589;DHT22;58504;48.770;9.148;2022-12-07T12:32:16;18.40;55.40
62589;DHT22;58504;48.770;9.148;2022-12-07T12:35:00;18.50;55.50
62589;DHT22;58504;48.770;9.148;2022-12-07T12:37:45;18.40;55.40
62589;DHT22;58504;48.770;9.148;2022-12-07T12:40:41;18.40;55.40
62589;DHT22;58504;48.770;9.148;2022-12-07T12:43:40;18.40;55.50
62589;DHT22;58504;48.770;9.148;2022-12-07T12:46:38;18.40;55.40
62589;DHT22;58504;48.770;9.148;2022-12-07T12:49:33;18.40;55.40
62589;DHT22;58504;48.770;9.148;2022-12-07T12:52:01;18.40;55.40
62589;DHT22;58504;48.770;9.148;2022-12-07T12:54:59;18.40;55.50
62589;DHT22;58504;48.770;9.148;2022-12-07T12:57:30;18.40;55.50
62589;DHT22;58504;48.770;9.148;2022-12-07T12:59:58;18.40;55.50
62589;DHT22;58504;48.770;9.148;2022-12-07T13:02:27;18.40;55.60
62589;DHT22;58504;48.770;9.148;2022-12-07T13:04:56;18.30;55.50
62589;DHT22;58504;48.770;9.148;2022-12-07T13:07:52;18.30;55.60
62589;DHT22;58504;48.770;9.148;2022-12-07T13:10:37;18.30;55.60
62589;DHT22;58504;48.770;9.148;2022-12-07T13:13:29;18.40;55.60
62589;DHT22;58504;48.770;9.148;2022-12-07T13:18:56;18.60;55.50
62589;DHT22;58504;48.770;9.148;2022-12-07T13:21:41;19.00;55.00
62589;DHT22;58504;48.770;9.148;2022-12-07T13:24:10;19.50;54.10
62589;DHT22;58504;48.770;9.148;2022-12-07T13:26:42;19.80;53.10
62589;DHT22;58504;48.770;9.148;2022-12-07T13:29:12;20.10;52.40
62589;DHT22;58504;48.770;9.148;2022-12-07T13:31:41;20.30;51.90
62589;DHT22;58504;48.770;9.148;2022-12-07T13:34:30;20.50;51.60
62589;DHT22;58504;48.770;9.148;2022-12-07T13:36:57;20.60;51.40
62589;DHT22;58504;48.770;9.148;2022-12-07T13:39:26;20.60;51.20
62589;DHT22;58504;48.770;9.148;2022-12-07T13:41:54;20.60;51.10
62589;DHT22;58504;48.770;9.148;2022-12-07T13:44:24;20.60;51.10
62589;DHT22;58504;48.770;9.148;2022-12-07T13:46:59;20.60;51.10
62589;DHT22;58504;48.770;9.148;2022-12-07T13:49:31;20.60;51.10
62589;DHT22;58504;48.770;9.148;2022-12-07T13:52:14;20.60;51.20
62589;DHT22;58504;48.770;9.148;2022-12-07T13:54:43;20.50;51.20
62589;DHT22;58504;48.770;9.148;2022-12-07T13:57:10;20.50;51.40
62589;DHT22;58504;48.770;9.148;2022-12-07T13:59:38;20.40;51.40
62589;DHT22;58504;48.770;9.148;2022-12-07T14:02:18;20.30;51.40
62589;DHT22;58504;48.770;9.148;2022-12-07T14:04:48;20.20;51.50
62589;DHT22;58504;48.770;9.148;2022-12-07T14:07:23;20.20;51.70
62589;DHT22;58504;48.770;9.148;2022-12-07T14:09:55;20.10;51.70
62589;DHT22;58504;48.770;9.148;2022-12-07T14:12:23;20.10;51.90
62589;DHT22;58504;48.770;9.148;2022-12-07T14:14:52;20.00;51.90
62589;DHT22;58504;48.770;9.148;2022-12-07T14:17:21;19.90;51.90
62589;DHT22;58504;48.770;9.148;2022-12-07T14:19:50;19.90;52.10
62589;DHT22;58504;48.770;9.148;2022-12-07T14:22:25;19.80;52.10
62589;DHT22;58504;48.770;9.148;2022-12-07T14:24:59;19.80;52.30
62589;DHT22;58504;48.770;9.148;2022-12-07T14:27:31;19.70;52.40
62589;DHT22;58504;48.770;9.148;2022-12-07T14:30:00;19.70;52.60
62589;DHT22;58504;48.770;9.148;2022-12-07T14:32:29;19.60;52.60
62589;DHT22;58504;48.770;9.148;2022-12-07T14:34:58;19.50;52.70
62589;DHT22;58504;48.770;9.148;2022-12-07T14:37:25;19.50;52.80
62589;DHT22;58504;48.770;9.148;2022-12-07T14:39:53;19.40;52.80
62589;DHT22;58504;48.770;9.148;2022-12-07T14:42:20;19.40;52.90
62589;DHT22;58504;48.770;9.148;2022-12-07T14:44:48;19.30;53.10
62589;DHT22;58504;48.770;9.148;2022-12-07T14:47:16;19.30;53.20
62589;DHT22;58504;48.770;9.148;2022-12-07T14:49:43;19.20;53.30
62589;DHT22;58504;48.770;9.148;2022-12-07T14:52:14;19.20;53.40
62589;DHT22;58504;48.770;9.148;2022-12-07T14:54:42;19.10;53.50
62589;DHT22;58504;48.770;9.148;2022-12-07T14:57:09;19.10;53.60
62589;DHT22;58504;48.770;9.148;2022-12-07T14:59:37;19.10;53.70
62589;DHT22;58504;48.770;9.148;2022-12-07T15:02:04;19.20;53.70
62589;DHT22;58504;48.770;9.148;2022-12-07T15:04:32;19.50;53.30
62589;DHT22;58504;48.770;9.148;2022-12-07T15:07:00;19.80;52.60
62589;DHT22;58504;48.770;9.148;2022-12-07T15:09:27;20.20;52.10
62589;DHT22;58504;48.770;9.148;2022-12-07T15:11:54;20.50;51.60
62589;DHT22;58504;48.770;9.148;2022-12-07T15:14:20;20.60;51.10
62589;DHT22;58504;48.770;9.148;2022-12-07T15:16:47;20.80;51.40
62589;DHT22;58504;48.770;9.148;2022-12-07T15:19:15;20.90;50.60
62589;DHT22;58504;48.770;9.148;2022-12-07T15:21:44;21.00;50.50
62589;DHT22;58504;48.770;9.148;2022-12-07T15:24:11;21.00;50.40
62589;DHT22;58504;48.770;9.148;2022-12-07T15:26:39;20.90;50.30
62589;DHT22;58504;48.770;9.148;2022-12-07T15:29:07;20.90;50.40
62589;DHT22;58504;48.770;9.148;2022-12-07T15:31:34;20.90;50.50
62589;DHT22;58504;48.770;9.148;2022-12-07T15:34:01;20.80;50.50
62589;DHT22;58504;48.770;9.148;2022-12-07T15:36:29;20.70;50.60
62589;DHT22;58504;48.770;9.148;2022-12-07T15:38:57;20.70;50.70
62589;DHT22;58504;48.770;9.148;2022-12-07T15:41:25;20.60;50.80
62589;DHT22;58504;48.770;9.148;2022-12-07T15:43:52;20.50;51.00
62589;DHT22;58504;48.770;9.148;2022-12-07T15:46:38;20.50;51.10
62589;DHT22;58504;48.770;9.148;2022-12-07T15:49:08;20.40;51.30
62589;DHT22;58504;48.770;9.148;2022-12-07T15:51:36;20.30;51.40
62589;DHT22;58504;48.770;9.148;2022-12-07T15:54:04;20.30;51.50
62589;DHT22;58504;48.770;9.148;2022-12-07T15:56:31;20.20;51.60
62589;DHT22;58504;48.770;9.148;2022-12-07T15:58:57;20.10;51.70
62589;DHT22;58504;48.770;9.148;2022-12-07T16:01:24;20.10;51.90
62589;DHT22;58504;48.770;9.148;2022-12-07T16:03:51;20.00;51.80
62589;DHT22;58504;48.770;9.148;2022-12-07T16:06:18;19.90;51.90